Time;durP1;ratioP1;P1;durP2;ratioP2;P2;SDS_P1;SDS_P2;PMS_P1;PMS_P2;Temp;Humidity;BMP_temperature;BMP_pressure;BME280_temperature;BME280_humidity;BME280_pressure;Samples;Min_cycle;Max_cycle;Signal;HPM_P1;HPM_P2
2021/10/08 00:01:44;;;;;;;14.13;12.40;;;;;;;12.55;73.66;102800.28;5040675;28;20170;-69
2021/10/08 00:04:09;;;;;;;16.77;13.27;;;;;;;12.29;74.88;102804.59;5040358;28;20171;-70
2021/10/08 00:06:35;;;;;;;15.30;12.60;;;;;;;12.53;74.07;102801.06;5040328;28;20170;-69
2021/10/08 00:09:00;;;;;;;13.60;12.20;;;;;;;12.38;74.39;102810.16;5043313;28;20208;-71
2021/10/08 00:11:26;;;;;;;13.93;12.43;;;;;;;12.12;74.84;102809.22;5042867;28;20186;-70
2021/10/08 00:13:53;;;;;;;15.23;12.30;;;;;;;12.37;74.15;102820.59;5026406;28;20253;-70
2021/10/08 00:16:18;;;;;;;15.23;13.63;;;;;;;12.30;74.09;102814.25;5044097;28;20467;-69
2021/10/08 00:18:43;;;;;;;15.83;13.27;;;;;;;12.28;74.44;102815.91;5040144;28;20481;-70
2021/10/08 00:21:09;;;;;;;16.73;12.93;;;;;;;12.17;74.79;102819.84;5040035;28;20288;-71
2021/10/08 00:23:35;;;;;;;15.27;12.90;;;;;;;12.38;73.95;102818.03;5040349;28;20185;-70
2021/10/08 00:26:00;;;;;;;13.73;12.43;;;;;;;12.10;74.82;102824.84;5040426;28;20265;-70
2021/10/08 00:28:26;;;;;;;13.93;12.00;;;;;;;12.23;74.56;102822.69;5042858;28;20392;-71
2021/10/08 00:30:51;;;;;;;14.07;12.53;;;;;;;12.09;74.83;102819.56;5042516;28;20508;-70
2021/10/08 00:33:17;;;;;;;14.03;12.63;;;;;;;11.88;75.28;102830.97;5041451;28;20176;-70
2021/10/08 00:35:42;;;;;;;13.03;11.63;;;;;;;12.13;74.81;102829.31;5039921;28;20178;-70
2021/10/08 00:38:08;;;;;;;13.97;12.47;;;;;;;12.03;75.00;102828.09;5041995;28;20506;-70
2021/10/08 00:40:40;;;;;;;17.20;12.93;;;;;;;12.15;74.56;102822.41;5039424;28;20205;-69
2021/10/08 00:43:06;;;;;;;14.53;13.10;;;;;;;11.95;74.56;102824.28;5039707;28;20402;-70
2021/10/08 00:45:31;;;;;;;14.57;12.93;;;;;;;11.89;75.23;102826.63;5039941;28;20405;-72
2021/10/08 00:48:05;;;;;;;14.13;12.30;;;;;;;11.97;74.66;102822.63;5022252;28;20166;-70
2021/10/08 00:50:35;;;;;;;13.77;12.30;;;;;;;11.96;74.88;102818.22;5039118;28;20174;-70
2021/10/08 00:53:00;;;;;;;13.93;11.77;;;;;;;11.91;74.79;102819.75;5021875;28;20464;-70
2021/10/08 00:55:26;;;;;;;15.40;11.70;;;;;;;11.90;74.78;102824.06;5048803;28;20418;-69
2021/10/08 00:57:51;;;;;;;15.00;13.20;;;;;;;11.98;74.31;102820.91;5042185;28;20221;-69
2021/10/08 01:00:17;;;;;;;16.03;13.30;;;;;;;11.76;75.41;102820.06;5058841;28;20173;-69
2021/10/08 01:02:43;;;;;;;14.83;12.83;;;;;;;11.73;75.12;102826.06;5059204;28;20177;-69
2021/10/08 01:05:09;;;;;;;14.83;13.20;;;;;;;11.80;75.14;102819.34;5042005;28;20668;-70
2021/10/08 01:07:34;;;;;;;14.27;12.40;;;;;;;11.83;74.68;102819.44;5059019;28;20464;-69
2021/10/08 01:09:59;;;;;;;13.67;12.37;;;;;;;11.59;75.62;102825.50;5058669;28;20892;-69
2021/10/08 01:12:25;;;;;;;14.00;12.53;;;;;;;11.80;74.39;102822.84;5059405;28;20551;-69
2021/10/08 01:14:50;;;;;;;16.37;13.13;;;;;;;11.73;74.26;102819.91;5041883;28;20473;-70
2021/10/08 01:17:17;;;;;;;13.87;12.47;;;;;;;11.84;74.27;102825.56;5041371;28;20503;-69
2021/10/08 01:19:43;;;;;;;17.30;12.13;;;;;;;11.69;75.70;102818.94;5058917;28;20169;-69
2021/10/08 01:22:08;;;;;;;15.27;12.33;;;;;;;11.51;75.47;102820.81;5058524;28;20465;-69
2021/10/08 01:24:34;;;;;;;14.07;12.10;;;;;;;11.54;74.99;102823.53;5056537;28;20170;-70
2021/10/08 01:27:06;;;;;;;22.10;12.87;;;;;;;11.52;75.49;102825.22;5056698;28;20221;-70
2021/10/08 01:29:32;;;;;;;17.17;13.47;;;;;;;11.71;74.51;102821.59;5058693;28;20188;-69
2021/10/08 01:31:58;;;;;;;16.87;13.47;;;;;;;11.42;75.64;102830.09;5058496;28;20684;-69
2021/10/08 01:34:23;;;;;;;14.47;12.30;;;;;;;11.34;76.35;102818.44;5041517;28;20404;-69
2021/10/08 01:36:49;;;;;;;17.77;12.30;;;;;;;11.52;75.60;102813.03;5058478;28;20170;-69
2021/10/08 01:39:14;;;;;;;14.23;12.43;;;;;;;11.80;74.81;102819.34;5058288;28;20201;-69
2021/10/08 01:41:39;;;;;;;16.07;13.63;;;;;;;11.54;74.95;102821.84;5058682;28;20182;-69
2021/10/08 01:44:05;;;;;;;16.67;12.37;;;;;;;11.51;75.60;102828.66;5058288;28;20542;-69
2021/10/08 01:46:30;;;;;;;12.77;11.43;;;;;;;11.59;75.23;102827.22;5058366;28;20185;-69
2021/10/08 01:48:55;;;;;;;13.70;11.93;;;;;;;11.44;75.05;102817.06;5059029;28;20161;-69
2021/10/08 01:51:21;;;;;;;16.17;12.77;;;;;;;11.53;74.77;102824.38;5057894;28;20221;-69
2021/10/08 01:53:46;;;;;;;14.57;12.43;;;;;;;11.51;74.94;102820.81;5058246;28;20295;-70
2021/10/08 01:56:12;;;;;;;13.90;12.40;;;;;;;11.45;75.38;102817.13;5058569;28;20166;-69
2021/10/08 01:58:37;;;;;;;15.70;12.20;;;;;;;11.68;74.47;102819.75;5040824;28;20224;-69
2021/10/08 02:01:03;;;;;;;15.43;13.30;;;;;;;11.57;75.79;102818.47;5057962;28;20461;-71
2021/10/08 02:03:28;;;;;;;18.07;14.30;;;;;;;11.71;76.27;102821.59;5058708;28;20531;-69
2021/10/08 02:05:53;;;;;;;14.53;12.23;;;;;;;11.66;75.29;102824.03;5058239;28;20169;-69
2021/10/08 02:08:19;;;;;;;15.13;13.50;;;;;;;11.59;76.22;102822.88;5058315;28;20173;-70
2021/10/08 02:10:44;;;;;;;14.60;12.60;;;;;;;11.59;75.64;102827.22;5058236;28;20200;-70
2021/10/08 02:13:10;;;;;;;13.03;11.73;;;;;;;11.66;75.20;102825.75;5059443;28;20178;-70
2021/10/08 02:15:36;;;;;;;13.73;12.00;;;;;;;11.40;75.31;102834.34;5064941;28;20265;-69
2021/10/08 02:18:01;;;;;;;15.20;13.70;;;;;;;11.63;75.98;102829.13;5064998;28;20543;-69
2021/10/08 02:20:26;;;;;;;17.67;14.10;;;;;;;11.42;78.07;102835.31;5064686;28;20444;-69
2021/10/08 02:22:52;;;;;;;14.10;12.70;;;;;;;11.38;77.08;102837.72;5064673;28;20173;-69
2021/10/08 02:25:17;;;;;;;13.53;12.13;;;;;;;11.54;75.47;102834.91;5065068;28;20181;-70
2021/10/08 02:27:42;;;;;;;14.47;12.70;;;;;;;11.48;76.01;102839.88;5064715;28;20206;-70
2021/10/08 02:30:08;;;;;;;14.70;12.47;;;;;;;11.52;75.38;102838.28;5064610;28;20416;-70
2021/10/08 02:32:34;;;;;;;15.73;12.83;;;;;;;11.54;74.86;102839.22;5064786;28;20173;-70
2021/10/08 02:34:59;;;;;;;15.77;13.00;;;;;;;11.37;75.37;102835.97;5064719;28;20470;-69
2021/10/08 02:37:24;;;;;;;12.90;11.70;;;;;;;11.25;76.87;102834.59;5064421;28;20201;-69
2021/10/08 02:39:49;;;;;;;13.53;12.13;;;;;;;11.44;75.22;102841.47;5064907;28;20201;-70
2021/10/08 02:42:15;;;;;;;15.03;12.50;;;;;;;11.40;75.34;102839.56;5064374;28;20173;-69
2021/10/08 02:44:41;;;;;;;13.20;11.90;;;;;;;11.35;75.12;102842.81;5030553;28;20484;-69
2021/10/08 02:47:06;;;;;;;13.50;12.10;;;;;;;11.36;74.81;102849.84;5064703;28;20404;-69
2021/10/08 02:49:31;;;;;;;13.47;11.43;;;;;;;11.00;75.91;102851.00;5064375;28;20211;-69
2021/10/08 02:51:57;;;;;;;13.60;11.40;;;;;;;11.19;75.84;102854.34;5064085;28;20218;-69
2021/10/08 02:54:22;;;;;;;13.17;11.77;;;;;;;11.31;75.18;102852.25;5064837;28;20176;-69
2021/10/08 02:56:47;;;;;;;13.40;12.00;;;;;;;11.37;75.11;102855.13;5064242;28;20257;-69
2021/10/08 02:59:13;;;;;;;12.23;10.87;;;;;;;11.11;75.71;102854.94;5064225;28;20563;-69
2021/10/08 03:01:38;;;;;;;13.20;11.80;;;;;;;11.19;75.46;102862.19;5064624;28;20177;-70
2021/10/08 03:04:05;;;;;;;13.60;12.30;;;;;;;11.07;75.73;102863.47;5064321;28;20475;-69
2021/10/08 03:06:30;;;;;;;13.53;12.13;;;;;;;11.08;76.45;102861.75;5064136;28;20415;-69
2021/10/08 03:08:56;;;;;;;13.27;11.17;;;;;;;11.05;75.49;102857.28;5065577;28;20186;-71
2021/10/08 03:11:25;;;;;;;12.83;11.60;;;;;;;10.88;75.68;102859.19;5065206;28;20193;-71
2021/10/08 03:13:50;;;;;;;13.30;12.00;;;;;;;11.13;75.45;102857.59;5066924;28;20173;-71
2021/10/08 03:16:16;;;;;;;13.97;12.00;;;;;;;10.97;75.40;102863.91;5067721;28;20462;-69
2021/10/08 03:18:41;;;;;;;13.93;11.33;;;;;;;10.96;75.96;102856.91;5066641;28;20217;-70
2021/10/08 03:21:06;;;;;;;12.80;11.53;;;;;;;11.09;75.02;102859.19;5066174;28;20261;-70
2021/10/08 03:23:32;;;;;;;13.60;10.70;;;;;;;11.15;75.73;102865.50;5064788;28;20173;-70
2021/10/08 03:25:57;;;;;;;13.53;10.87;;;;;;;10.95;75.17;102862.97;5041944;28;20196;-70
2021/10/08 03:28:22;;;;;;;15.20;11.90;;;;;;;10.75;76.11;102865.59;5061125;28;20170;-69
2021/10/08 03:30:48;;;;;;;12.07;10.87;;;;;;;10.82;75.83;102866.75;5061474;28;20170;-70
2021/10/08 03:33:13;;;;;;;12.63;11.20;;;;;;;10.67;76.72;102871.31;5060745;28;20212;-69
2021/10/08 03:35:42;;;;;;;13.70;11.47;;;;;;;10.67;76.37;102872.19;5043500;28;20263;-70
2021/10/08 03:38:15;;;;;;;13.10;11.73;;;;;;;10.82;76.46;102866.75;5043769;28;20574;-69
2021/10/08 03:40:42;;;;;;;14.47;11.97;;;;;;;10.75;76.31;102868.19;5060618;28;20790;-70
2021/10/08 03:43:10;;;;;;;12.77;11.50;;;;;;;10.89;76.19;102868.81;5060722;28;20452;-69
2021/10/08 03:45:45;;;;;;;13.03;11.50;;;;;;;10.88;75.39;102867.03;5060595;28;20413;-69
2021/10/08 03:50:55;;;;;;;12.10;10.90;;;;;;;10.68;76.21;102873.13;5060030;28;20698;-70
2021/10/08 03:53:21;;;;;;;12.97;11.67;;;;;;;10.73;75.97;102880.31;5060346;28;20424;-69
2021/10/08 03:55:46;;;;;;;12.67;11.47;;;;;;;10.70;76.14;102877.56;5060265;28;20181;-69
2021/10/08 03:58:11;;;;;;;14.07;12.53;;;;;;;10.66;75.84;102878.22;5060358;28;20205;-70
2021/10/08 04:00:36;;;;;;;13.87;11.67;;;;;;;10.67;76.04;102882.63;5060799;28;20582;-70
2021/10/08 04:03:02;;;;;;;15.13;13.07;;;;;;;10.83;75.14;102883.31;5060252;28;20253;-69
2021/10/08 04:05:27;;;;;;;12.90;11.27;;;;;;;10.71;75.42;102876.72;5060191;28;20208;-69
2021/10/08 04:07:52;;;;;;;12.43;11.20;;;;;;;10.65;75.51;102884.31;5060748;28;20189;-69
2021/10/08 04:10:18;;;;;;;13.50;12.10;;;;;;;10.69;75.00;102883.63;5059708;28;20197;-70
2021/10/08 04:12:43;;;;;;;12.80;11.33;;;;;;;10.57;75.68;102883.06;5060182;28;20177;-70
2021/10/08 04:15:09;;;;;;;12.13;10.93;;;;;;;10.53;76.26;102879.44;5060577;28;20177;-70
2021/10/08 04:17:34;;;;;;;24.00;18.13;;;;;;;10.81;75.65;102890.19;5059939;28;20193;-70
2021/10/08 04:19:59;;;;;;;13.23;11.90;;;;;;;10.82;75.55;102878.91;5059947;28;20184;-71
2021/10/08 04:22:24;;;;;;;12.63;11.13;;;;;;;10.95;74.32;102878.63;5060349;28;20260;-69
2021/10/08 04:24:50;;;;;;;14.80;11.30;;;;;;;10.48;75.72;102887.88;5059798;28;20274;-70
2021/10/08 04:27:15;;;;;;;14.77;11.93;;;;;;;10.45;76.45;102884.28;5059886;28;20162;-69
2021/10/08 04:29:40;;;;;;;13.00;11.60;;;;;;;10.41;76.21;102884.97;5042667;28;20169;-69
2021/10/08 04:32:06;;;;;;;13.03;11.73;;;;;;;10.71;75.52;102881.94;5059377;28;20192;-69
2021/10/08 04:34:31;;;;;;;13.47;12.13;;;;;;;10.47;75.99;102878.25;5042163;28;20182;-69
2021/10/08 04:36:56;;;;;;;13.30;11.90;;;;;;;10.51;75.55;102885.41;5059449;28;20218;-70
2021/10/08 04:39:22;;;;;;;13.63;12.20;;;;;;;10.61;75.32;102885.00;5059380;28;20205;-69
2021/10/08 04:41:47;;;;;;;13.50;12.10;;;;;;;10.72;75.08;102883.72;5059380;28;20480;-69
2021/10/08 04:44:12;;;;;;;13.97;12.57;;;;;;;10.98;74.29;102883.09;5059848;28;20592;-69
2021/10/08 04:46:38;;;;;;;12.63;11.33;;;;;;;10.74;74.99;102889.94;5059301;28;20169;-69
2021/10/08 04:49:03;;;;;;;13.77;11.60;;;;;;;10.74;75.25;102891.63;5057633;28;20185;-68
2021/10/08 04:51:29;;;;;;;13.20;11.90;;;;;;;10.85;74.77;102887.78;5052453;28;20229;-68
2021/10/08 04:53:54;;;;;;;13.17;11.67;;;;;;;10.70;75.64;102893.22;5051657;28;20204;-69
2021/10/08 04:56:19;;;;;;;13.63;12.10;;;;;;;10.90;74.37;102893.19;5052653;28;21397;-70
2021/10/08 04:58:45;;;;;;;15.17;13.57;;;;;;;10.49;75.67;102900.09;5051878;28;20557;-69
2021/10/08 05:01:10;;;;;;;12.50;11.27;;;;;;;10.56;75.47;102896.94;5050725;28;20262;-69
2021/10/08 05:03:35;;;;;;;11.60;10.50;;;;;;;10.36;76.17;102904.72;5056169;28;20192;-70
2021/10/08 05:06:00;;;;;;;13.10;11.70;;;;;;;10.18;77.12;102907.38;5058691;28;20177;-70
2021/10/08 05:08:26;;;;;;;12.23;11.03;;;;;;;9.82;79.11;102907.41;5058799;28;20188;-69
2021/10/08 05:10:51;;;;;;;12.40;10.80;;;;;;;9.61;80.54;102913.38;5058689;28;20461;-69
2021/10/08 05:13:16;;;;;;;13.30;11.60;;;;;;;9.80;79.71;102906.47;5056115;28;20216;-70
2021/10/08 05:15:42;;;;;;;12.97;11.50;;;;;;;10.36;76.71;102907.34;5052598;28;20177;-70
2021/10/08 05:18:07;;;;;;;13.00;10.40;;;;;;;10.45;76.60;102910.38;5058783;28;20193;-69
2021/10/08 05:20:33;;;;;;;12.23;10.90;;;;;;;10.30;77.11;102907.06;5058333;28;20276;-69
2021/10/08 05:22:58;;;;;;;12.70;11.50;;;;;;;10.36;76.73;102907.34;5058359;28;20445;-69
2021/10/08 05:25:24;;;;;;;12.70;11.50;;;;;;;10.53;76.22;102904.63;5053897;28;20221;-70
2021/10/08 05:27:49;;;;;;;12.77;11.47;;;;;;;10.61;75.20;102900.66;5038650;28;20185;-69
2021/10/08 05:30:16;;;;;;;12.30;11.00;;;;;;;10.74;74.79;102905.56;5056828;28;20180;-70
2021/10/08 05:32:41;;;;;;;13.53;11.93;;;;;;;9.94;77.62;102914.94;5058786;28;20166;-69
2021/10/08 05:35:08;;;;;;;14.20;11.03;;;;;;;9.68;79.65;102911.97;5058265;28;20490;-70
2021/10/08 05:37:33;;;;;;;11.90;10.70;;;;;;;10.39;77.01;102904.00;5057988;28;20193;-69
2021/10/08 05:39:59;;;;;;;16.97;11.60;;;;;;;10.47;76.25;102909.56;5058376;28;20689;-70
2021/10/08 05:42:25;;;;;;;13.70;11.87;;;;;;;10.58;74.91;102905.69;5040408;28;20420;-69
2021/10/08 05:44:50;;;;;;;15.80;11.20;;;;;;;10.51;75.22;102907.13;5053907;28;20371;-70
2021/10/08 05:47:16;;;;;;;16.73;11.60;;;;;;;10.23;77.54;102910.22;5058468;28;20528;-69
2021/10/08 05:49:41;;;;;;;14.60;12.03;;;;;;;10.60;75.29;102901.47;5058259;28;20566;-69
2021/10/08 05:52:06;;;;;;;17.47;13.13;;;;;;;10.56;75.51;102915.19;5058450;28;20228;-69
2021/10/08 05:54:32;;;;;;;14.33;12.20;;;;;;;10.42;75.99;102912.84;5059565;28;20184;-69
2021/10/08 05:56:57;;;;;;;12.80;10.97;;;;;;;10.20;76.44;102917.88;5052627;28;20571;-68
2021/10/08 05:59:22;;;;;;;14.27;11.20;;;;;;;9.69;79.00;102920.69;5050758;28;20201;-69
2021/10/08 06:01:47;;;;;;;11.90;10.70;;;;;;;10.52;76.86;102923.69;5056158;28;20230;-70
2021/10/08 06:04:13;;;;;;;12.50;11.20;;;;;;;10.38;76.54;102930.91;5057487;28;20553;-68
2021/10/08 06:06:38;;;;;;;12.63;11.20;;;;;;;10.84;74.23;102926.81;5057712;28;20185;-69
2021/10/08 06:09:03;;;;;;;13.27;11.87;;;;;;;9.89;78.10;102934.66;5058042;28;20174;-68
2021/10/08 06:11:29;;;;;;;17.30;12.90;;;;;;;10.13;78.10;102941.88;5047257;28;20213;-68
2021/10/08 06:13:55;;;;;;;12.67;11.37;;;;;;;10.42;77.26;102944.13;5049059;28;20189;-68
2021/10/08 06:16:21;;;;;;;17.30;12.80;;;;;;;10.90;74.66;102935.81;5055240;28;20424;-69
2021/10/08 06:18:46;;;;;;;13.83;12.43;;;;;;;10.89;74.33;102946.19;5049770;28;20478;-69
2021/10/08 06:21:11;;;;;;;14.10;12.60;;;;;;;10.82;74.44;102944.16;5049721;28;20185;-70
2021/10/08 06:23:37;;;;;;;15.47;12.80;;;;;;;11.00;73.68;102946.66;5050035;28;20213;-68
2021/10/08 06:26:02;;;;;;;14.57;12.70;;;;;;;10.63;75.50;102952.88;5045568;28;20211;-69
2021/10/08 06:28:27;;;;;;;13.80;11.70;;;;;;;10.89;74.04;102952.31;5037605;28;20182;-69
2021/10/08 06:30:53;;;;;;;16.13;13.43;;;;;;;10.36;76.82;102958.59;5038124;28;20548;-69
2021/10/08 06:33:18;;;;;;;16.63;13.00;;;;;;;9.97;78.52;102961.09;5037492;28;20231;-68
2021/10/08 06:35:44;;;;;;;17.00;13.17;;;;;;;10.24;77.65;102958.88;5037772;28;20528;-68
2021/10/08 06:38:10;;;;;;;16.23;13.10;;;;;;;10.79;76.46;102960.56;5038081;28;20235;-67
2021/10/08 06:40:37;;;;;;;15.67;13.40;;;;;;;11.33;73.63;102964.63;5020612;28;20171;-68
2021/10/08 06:43:02;;;;;;;14.17;11.67;;;;;;;11.92;70.88;102962.66;5057728;28;20444;-68
2021/10/08 06:45:28;;;;;;;16.37;12.03;;;;;;;12.19;70.39;102956.75;5040548;28;20443;-68
2021/10/08 06:47:53;;;;;;;13.23;11.40;;;;;;;12.61;68.21;102956.59;5057017;28;20170;-68
2021/10/08 06:50:19;;;;;;;15.30;11.07;;;;;;;13.23;66.69;102956.16;5057419;28;20477;-69
2021/10/08 06:52:44;;;;;;;13.47;12.03;;;;;;;12.56;67.98;102964.28;5057029;28;20645;-67
2021/10/08 06:55:10;;;;;;;14.03;12.53;;;;;;;13.39;66.21;102961.13;5057464;28;20173;-68
2021/10/08 06:57:35;;;;;;;13.93;11.10;;;;;;;13.05;66.35;102965.16;5057574;28;20170;-68
2021/10/08 07:00:01;;;;;;;12.43;10.87;;;;;;;13.62;65.38;102959.25;5058557;28;20335;-68
2021/10/08 07:02:26;;;;;;;11.63;10.53;;;;;;;13.68;65.20;102963.84;5060906;28;20204;-67
2021/10/08 07:04:51;;;;;;;13.60;10.80;;;;;;;14.00;63.42;102963.94;5061398;28;20253;-69
2021/10/08 07:07:17;;;;;;;12.00;10.80;;;;;;;15.05;60.54;102955.63;5060812;28;20170;-68
2021/10/08 07:09:43;;;;;;;16.53;10.97;;;;;;;16.14;56.98;102960.94;5060964;28;20173;-68
2021/10/08 07:12:08;;;;;;;12.40;10.93;;;;;;;16.80;54.86;102956.13;5060824;28;20170;-68
2021/10/08 07:14:34;;;;;;;19.07;10.63;;;;;;;16.95;54.49;102955.59;5060970;28;20418;-69
2021/10/08 07:16:59;;;;;;;16.07;10.60;;;;;;;16.73;54.53;102948.97;5060855;28;20165;-69
2021/10/08 07:19:25;;;;;;;11.60;10.20;;;;;;;17.50;52.33;102950.38;5061036;28;20208;-69
2021/10/08 07:21:51;;;;;;;14.13;9.90;;;;;;;17.63;52.37;102955.84;5060530;28;20585;-69
2021/10/08 07:24:17;;;;;;;10.83;9.37;;;;;;;17.92;52.03;102958.97;5060885;28;20223;-70
2021/10/08 07:26:43;;;;;;;11.80;9.00;;;;;;;18.25;50.35;102964.69;5029420;28;20446;-69
2021/10/08 07:29:08;;;;;;;15.40;9.80;;;;;;;18.52;50.41;102962.41;5040590;28;20797;-69
2021/10/08 07:31:34;;;;;;;12.47;9.20;;;;;;;18.10;51.46;102968.00;5040644;28;20220;-69
2021/10/08 07:33:59;;;;;;;11.00;9.40;;;;;;;18.15;51.52;102967.19;5040861;28;20181;-69
2021/10/08 07:36:25;;;;;;;10.43;9.43;;;;;;;18.81;49.87;102964.50;5040728;28;20202;-70
2021/10/08 07:38:50;;;;;;;10.47;9.30;;;;;;;19.22;49.13;102959.66;5040455;28;20216;-72
2021/10/08 07:41:16;;;;;;;10.40;9.40;;;;;;;18.92;49.81;102971.69;5040483;28;20430;-70
2021/10/08 07:43:42;;;;;;;12.23;10.20;;;;;;;19.12;48.91;102964.84;5040578;28;20472;-68
2021/10/08 07:46:08;;;;;;;11.00;8.93;;;;;;;19.28;48.37;102965.88;5040314;28;20421;-69
2021/10/08 07:48:34;;;;;;;14.20;9.40;;;;;;;19.50;47.44;102968.72;5040627;28;20162;-69
2021/10/08 07:51:00;;;;;;;10.70;9.60;;;;;;;19.26;49.20;102977.31;5040238;28;20432;-69
2021/10/08 07:53:26;;;;;;;11.80;9.53;;;;;;;20.23;47.23;102972.75;5040121;28;20437;-70
2021/10/08 07:55:52;;;;;;;13.53;10.30;;;;;;;19.87;47.94;102966.34;5023386;28;20432;-69
2021/10/08 07:58:17;;;;;;;10.90;9.90;;;;;;;20.24;47.10;102965.66;5040285;28;20210;-69
2021/10/08 08:00:43;;;;;;;10.97;9.77;;;;;;;20.13;46.60;102968.25;5039646;28;20421;-68
2021/10/08 08:03:08;;;;;;;10.47;8.80;;;;;;;20.35;46.85;102966.63;5040306;28;20166;-69
2021/10/08 08:05:34;;;;;;;10.37;9.27;;;;;;;21.01;45.82;102969.50;5041763;28;20266;-68
2021/10/08 08:07:59;;;;;;;11.60;8.87;;;;;;;22.13;43.70;102967.66;5052412;28;20224;-68
2021/10/08 08:10:24;;;;;;;12.40;9.20;;;;;;;21.46;43.60;102973.91;5053825;28;20193;-69
2021/10/08 08:12:50;;;;;;;11.30;9.50;;;;;;;21.96;42.18;102969.47;5059220;28;20178;-69
2021/10/08 08:15:15;;;;;;;11.10;9.00;;;;;;;22.09;42.49;102970.31;5059783;28;20185;-69
2021/10/08 08:17:41;;;;;;;11.60;10.50;;;;;;;21.68;43.06;102969.53;5059469;28;20684;-69
2021/10/08 08:20:08;;;;;;;10.73;9.60;;;;;;;20.14;46.93;102976.22;5060065;28;20180;-69
2021/10/08 08:22:33;;;;;;;10.27;9.33;;;;;;;21.89;42.88;102967.72;5059052;28;20541;-68
2021/10/08 08:24:59;;;;;;;9.37;8.43;;;;;;;21.49;43.95;102969.50;5059866;28;20412;-68
2021/10/08 08:27:24;;;;;;;12.93;9.60;;;;;;;22.09;42.62;102970.31;5062564;28;20177;-69
2021/10/08 08:29:50;;;;;;;11.63;10.43;;;;;;;23.76;40.07;102955.97;5054788;28;20230;-68
2021/10/08 08:32:18;;;;;;;17.63;9.50;;;;;;;21.60;43.75;102971.31;5041251;28;20170;-68
2021/10/08 08:34:43;;;;;;;17.03;9.17;;;;;;;21.17;44.70;102973.03;5039264;28;20185;-68
2021/10/08 08:37:09;;;;;;;12.47;9.60;;;;;;;22.52;43.06;102965.75;5039614;28;20503;-70
2021/10/08 08:39:38;;;;;;;10.13;9.23;;;;;;;21.83;42.98;102964.19;5039789;28;20206;-67
2021/10/08 08:42:04;;;;;;;11.30;9.77;;;;;;;22.08;43.35;102968.56;5039086;28;20175;-68
2021/10/08 08:44:29;;;;;;;10.30;8.50;;;;;;;21.65;43.99;102974.81;5039062;28;20417;-69
2021/10/08 08:46:59;;;;;;;12.23;10.00;;;;;;;22.99;41.15;102963.69;5039108;28;20443;-68
2021/10/08 08:49:25;;;;;;;11.47;10.37;;;;;;;23.18;39.98;102961.81;5039249;28;20193;-69
2021/10/08 08:51:50;;;;;;;10.73;9.60;;;;;;;23.54;39.75;102956.19;5038987;28;20587;-68
2021/10/08 08:54:15;;;;;;;14.40;10.33;;;;;;;24.07;38.22;102956.53;5038976;28;20791;-68
2021/10/08 08:56:41;;;;;;;11.97;10.80;;;;;;;22.73;40.97;102963.84;5038876;28;20212;-69
2021/10/08 08:59:10;;;;;;;11.77;10.30;;;;;;;23.58;40.35;102962.38;5038362;28;20297;-68
2021/10/08 09:01:56;;;;;;;14.97;11.10;;;;;;;23.31;39.74;102961.72;5039031;28;20269;-69
2021/10/08 09:04:21;;;;;;;13.70;12.30;;;;;;;22.81;41.36;102966.47;5038536;28;20435;-69
2021/10/08 09:06:46;;;;;;;14.23;10.70;;;;;;;23.70;39.11;102959.59;5038555;28;20421;-68
2021/10/08 09:09:19;;;;;;;16.70;11.10;;;;;;;23.07;40.76;102968.97;5038778;28;20185;-69
2021/10/08 09:11:46;;;;;;;14.83;11.30;;;;;;;23.61;39.82;102968.56;5038164;28;20190;-68
2021/10/08 09:14:19;;;;;;;12.50;10.73;;;;;;;22.98;40.40;102974.34;5045361;28;20531;-69
2021/10/08 09:17:05;;;;;;;12.90;11.60;;;;;;;23.42;40.05;102970.50;5055964;28;20431;-70
2021/10/08 09:20:06;;;;;;;44.47;36.47;;;;;;;23.43;40.17;102963.41;5041221;28;20876;-68
2021/10/08 09:22:39;;;;;;;15.30;11.50;;;;;;;23.55;40.05;102971.25;5040649;28;20411;-70
2021/10/08 09:25:12;;;;;;;13.20;11.80;;;;;;;24.01;38.47;102967.28;5042371;28;20891;-69
2021/10/08 09:27:39;;;;;;;10.63;9.47;;;;;;;22.41;40.94;102967.59;5040635;28;20447;-69
2021/10/08 09:30:05;;;;;;;14.00;10.60;;;;;;;22.64;41.65;102971.91;5041376;28;20488;-68
2021/10/08 09:32:44;;;;;;;10.30;9.07;;;;;;;23.55;39.26;102966.81;5038323;28;20679;-69
2021/10/08 09:35:10;;;;;;;13.40;9.63;;;;;;;22.66;41.58;102975.44;5021241;28;20440;-69
2021/10/08 09:37:36;;;;;;;21.30;11.83;;;;;;;20.78;45.38;102980.06;5038393;28;20416;-69
2021/10/08 09:40:04;;;;;;;14.50;11.87;;;;;;;23.78;39.78;102965.72;5038278;28;20532;-69
2021/10/08 09:42:36;;;;;;;10.33;9.33;;;;;;;22.37;41.21;102976.47;5021281;28;20413;-70
2021/10/08 09:45:03;;;;;;;8.70;8.00;;;;;;;20.99;44.94;102980.97;5021059;28;20667;-69
2021/10/08 09:47:29;;;;;;;8.50;7.70;;;;;;;23.10;39.71;102971.59;5020969;28;20561;-69
2021/10/08 09:50:12;;;;;;;8.33;7.43;;;;;;;20.40;43.69;102978.09;5037909;28;20556;-69
2021/10/08 09:52:38;;;;;;;7.23;6.30;;;;;;;22.92;39.34;102964.66;5037603;28;20228;-70
2021/10/08 09:55:08;;;;;;;7.83;7.03;;;;;;;19.55;46.53;102974.03;5037771;28;20420;-70
2021/10/08 09:58:05;;;;;;;8.30;7.30;;;;;;;23.31;39.54;102959.06;5037691;28;20174;-68
2021/10/08 10:00:50;;;;;;;7.57;6.80;;;;;;;22.69;39.47;102952.38;4993941;28;20439;-69
2021/10/08 10:03:17;;;;;;;7.10;6.50;;;;;;;23.71;38.27;102950.69;5038246;28;20420;-67
2021/10/08 10:05:43;;;;;;;7.50;6.47;;;;;;;21.98;42.30;102962.38;5038358;28;20425;-68
2021/10/08 10:08:09;;;;;;;7.47;6.87;;;;;;;23.56;39.46;102957.06;5038025;28;20424;-68
2021/10/08 10:10:36;;;;;;;8.30;6.90;;;;;;;22.92;40.48;102956.66;5037647;28;20268;-70
2021/10/08 10:13:03;;;;;;;8.20;6.00;;;;;;;22.84;39.46;102954.06;5037789;28;20253;-71
2021/10/08 10:15:28;;;;;;;6.57;5.57;;;;;;;22.00;41.79;102965.91;5019600;28;20437;-69
2021/10/08 10:17:54;;;;;;;7.00;5.83;;;;;;;21.93;42.24;102956.19;5019947;28;20879;-68
2021/10/08 10:20:19;;;;;;;10.73;5.30;;;;;;;23.50;38.56;102952.69;5046794;28;20182;-69
2021/10/08 10:22:47;;;;;;;5.70;4.87;;;;;;;21.87;41.11;102965.94;5045780;28;20235;-68
2021/10/08 10:25:12;;;;;;;5.43;4.93;;;;;;;22.63;39.63;102956.84;5037912;28;20173;-68
2021/10/08 10:27:39;;;;;;;5.00;4.60;;;;;;;23.19;39.29;102955.59;5057391;28;20835;-69
2021/10/08 10:30:05;;;;;;;5.97;5.47;;;;;;;23.96;37.78;102953.13;5057294;28;20177;-68
2021/10/08 10:32:32;;;;;;;6.83;5.00;;;;;;;20.95;42.28;102966.81;5057343;28;20815;-69
2021/10/08 10:34:58;;;;;;;5.53;4.43;;;;;;;21.06;41.79;102964.19;5058792;28;20569;-69
2021/10/08 10:37:41;;;;;;;6.10;4.40;;;;;;;21.74;41.87;102972.16;5053040;28;20538;-68
2021/10/08 10:40:20;;;;;;;4.90;4.40;;;;;;;21.69;41.11;102968.66;5046997;28;20184;-68
2021/10/08 10:43:26;;;;;;;4.43;4.13;;;;;;;21.36;41.45;102962.44;5061286;28;20785;-67
2021/10/08 10:51:59;;;;;;;6.70;3.90;;;;;;;21.39;41.76;102962.41;5053858;28;20464;-68
2021/10/08 10:54:37;;;;;;;5.37;4.27;;;;;;;19.54;45.09;102973.16;5049978;28;20475;-69
2021/10/08 10:57:06;;;;;;;5.70;4.50;;;;;;;19.53;45.33;102982.81;5049515;28;20412;-68
2021/10/08 10:59:38;;;;;;;4.43;4.03;;;;;;;20.91;42.88;102969.47;5050923;28;20467;-69
2021/10/08 11:04:29;;;;;;;4.40;4.00;;;;;;;20.08;44.35;102970.00;5056544;28;20487;-69
2021/10/08 11:07:05;;;;;;;4.60;4.10;;;;;;;20.50;43.38;102958.72;5053191;28;20598;-68
2021/10/08 11:09:31;;;;;;;3.70;3.40;;;;;;;21.39;41.19;102967.72;5055340;28;20840;-69
2021/10/08 11:12:35;;;;;;;3.97;3.67;;;;;;;22.18;39.76;102955.22;5036728;28;20421;-68
2021/10/08 11:15:16;;;;;;;3.60;3.30;;;;;;;21.11;40.55;102959.78;5031453;28;20568;-67
2021/10/08 11:17:53;;;;;;;3.47;3.17;;;;;;;22.45;38.88;102952.50;5040508;28;20499;-69
2021/10/08 11:20:24;;;;;;;4.40;3.30;;;;;;;21.41;40.74;102958.00;5040671;28;20465;-69
2021/10/08 11:22:50;;;;;;;3.87;3.57;;;;;;;21.01;40.94;102955.34;5040506;28;20417;-68